sensor_id;sensor_type;location;lat;lon;timestamp;P1;durP1;ratioP1;P2;durP2;ratioP2
41446;SDS011;27185;52.040;4.490;2023-05-07T00:00:00;28.90;;;20.60;;
41446;SDS011;27185;52.040;4.490;2023-05-07T00:02:46;29.25;;;20.52;;
41446;SDS011;27185;52.040;4.490;2023-05-07T00:05:32;28.95;;;21.55;;
41446;SDS011;27185;52.040;4.490;2023-05-07T00:08:17;27.95;;;20.45;;
41446;SDS011;27185;52.040;4.490;2023-05-07T00:11:03;31.52;;;21.80;;
41446;SDS011;27185;52.040;4.490;2023-05-07T00:13:49;29.65;;;20.85;;
41446;SDS011;27185;52.040;4.490;2023-05-07T00:16:35;28.75;;;19.73;;
41446;SDS011;27185;52.040;4.490;2023-05-07T00:19:20;28.92;;;18.83;;
41446;SDS011;27185;52.040;4.490;2023-05-07T00:22:06;25.85;;;20.15;;
41446;SDS011;27185;52.040;4.490;2023-05-07T00:24:53;26.95;;;19.73;;
41446;SDS011;27185;52.040;4.490;2023-05-07T00:27:38;22.70;;;18.00;;
41446;SDS011;27185;52.040;4.490;2023-05-07T00:30:24;24.60;;;18.38;;
41446;SDS011;27185;52.040;4.490;2023-05-07T00:33:09;25.65;;;18.60;;
41446;SDS011;27185;52.040;4.490;2023-05-07T00:35:55;26.05;;;19.45;;
41446;SDS011;27185;52.040;4.490;2023-05-07T00:38:41;26.45;;;19.50;;
41446;SDS011;27185;52.040;4.490;2023-05-07T00:41:26;27.10;;;20.90;;
41446;SDS011;27185;52.040;4.490;2023-05-07T00:44:12;27.20;;;18.88;;
41446;SDS011;27185;52.040;4.490;2023-05-07T00:46:58;26.58;;;19.92;;
41446;SDS011;27185;52.040;4.490;2023-05-07T00:49:47;25.15;;;19.10;;
41446;SDS011;27185;52.040;4.490;2023-05-07T00:52:32;28.05;;;18.67;;
41446;SDS011;27185;52.040;4.490;2023-05-07T00:55:18;26.90;;;19.20;;
41446;SDS011;27185;52.040;4.490;2023-05-07T00:58:04;28.95;;;20.13;;
41446;SDS011;27185;52.040;4.490;2023-05-07T01:00:51;27.55;;;21.00;;
41446;SDS011;27185;52.040;4.490;2023-05-07T01:03:36;31.50;;;20.98;;
41446;SDS011;27185;52.040;4.490;2023-05-07T01:06:22;26.50;;;19.58;;
41446;SDS011;27185;52.040;4.490;2023-05-07T01:09:10;28.58;;;19.88;;
41446;SDS011;27185;52.040;4.490;2023-05-07T01:11:57;25.42;;;19.67;;
41446;SDS011;27185;52.040;4.490;2023-05-07T01:14:43;28.70;;;19.92;;
41446;SDS011;27185;52.040;4.490;2023-05-07T01:17:29;26.95;;;20.45;;
41446;SDS011;27185;52.040;4.490;2023-05-07T01:20:14;27.73;;;21.33;;
41446;SDS011;27185;52.040;4.490;2023-05-07T01:23:00;28.70;;;22.10;;
41446;SDS011;27185;52.040;4.490;2023-05-07T01:25:51;30.85;;;22.40;;
41446;SDS011;27185;52.040;4.490;2023-05-07T01:28:38;27.77;;;21.30;;
41446;SDS011;27185;52.040;4.490;2023-05-07T01:31:23;30.10;;;22.02;;
41446;SDS011;27185;52.040;4.490;2023-05-07T01:34:09;28.60;;;20.50;;
41446;SDS011;27185;52.040;4.490;2023-05-07T01:36:57;30.50;;;20.38;;
41446;SDS011;27185;52.040;4.490;2023-05-07T01:39:44;27.27;;;19.92;;
41446;SDS011;27185;52.040;4.490;2023-05-07T01:42:30;28.38;;;21.23;;
41446;SDS011;27185;52.040;4.490;2023-05-07T01:45:16;30.00;;;21.60;;
41446;SDS011;27185;52.040;4.490;2023-05-07T01:48:02;32.85;;;20.88;;
41446;SDS011;27185;52.040;4.490;2023-05-07T01:50:48;29.00;;;21.10;;
41446;SDS011;27185;52.040;4.490;2023-05-07T01:53:35;29.25;;;20.08;;
41446;SDS011;27185;52.040;4.490;2023-05-07T01:56:21;29.90;;;21.17;;
41446;SDS011;27185;52.040;4.490;2023-05-07T01:59:07;30.52;;;21.55;;
41446;SDS011;27185;52.040;4.490;2023-05-07T02:01:53;31.15;;;21.52;;
41446;SDS011;27185;52.040;4.490;2023-05-07T02:04:38;27.80;;;20.65;;
41446;SDS011;27185;52.040;4.490;2023-05-07T02:07:24;26.20;;;19.65;;
41446;SDS011;27185;52.040;4.490;2023-05-07T02:10:09;23.45;;;17.77;;
41446;SDS011;27185;52.040;4.490;2023-05-07T02:12:55;27.95;;;19.02;;
41446;SDS011;27185;52.040;4.490;2023-05-07T02:15:41;24.23;;;18.88;;
41446;SDS011;27185;52.040;4.490;2023-05-07T02:18:26;27.85;;;20.33;;
41446;SDS011;27185;52.040;4.490;2023-05-07T02:21:12;25.98;;;19.65;;
41446;SDS011;27185;52.040;4.490;2023-05-07T02:23:57;25.92;;;21.05;;
41446;SDS011;27185;52.040;4.490;2023-05-07T02:26:43;24.40;;;18.60;;
41446;SDS011;27185;52.040;4.490;2023-05-07T02:29:29;24.10;;;19.13;;
41446;SDS011;27185;52.040;4.490;2023-05-07T02:32:14;25.50;;;20.10;;
41446;SDS011;27185;52.040;4.490;2023-05-07T02:35:00;25.17;;;19.40;;
41446;SDS011;27185;52.040;4.490;2023-05-07T02:37:46;26.58;;;19.63;;
41446;SDS011;27185;52.040;4.490;2023-05-07T02:40:31;25.30;;;19.52;;
41446;SDS011;27185;52.040;4.490;2023-05-07T02:43:18;26.33;;;18.50;;
41446;SDS011;27185;52.040;4.490;2023-05-07T02:46:07;24.52;;;20.63;;
41446;SDS011;27185;52.040;4.490;2023-05-07T02:48:53;22.35;;;17.77;;
41446;SDS011;27185;52.040;4.490;2023-05-07T02:51:39;23.75;;;19.08;;
41446;SDS011;27185;52.040;4.490;2023-05-07T02:54:25;23.45;;;18.60;;
41446;SDS011;27185;52.040;4.490;2023-05-07T02:57:10;23.58;;;18.27;;
41446;SDS011;27185;52.040;4.490;2023-05-07T02:59:57;21.52;;;17.88;;
41446;SDS011;27185;52.040;4.490;2023-05-07T03:02:43;23.77;;;18.03;;
41446;SDS011;27185;52.040;4.490;2023-05-07T03:05:29;21.85;;;17.75;;
41446;SDS011;27185;52.040;4.490;2023-05-07T03:08:15;24.80;;;18.70;;
41446;SDS011;27185;52.040;4.490;2023-05-07T03:11:00;20.88;;;17.55;;
41446;SDS011;27185;52.040;4.490;2023-05-07T03:13:46;19.73;;;15.65;;
41446;SDS011;27185;52.040;4.490;2023-05-07T03:16:33;18.55;;;14.82;;
41446;SDS011;27185;52.040;4.490;2023-05-07T03:19:19;19.33;;;16.40;;
41446;SDS011;27185;52.040;4.490;2023-05-07T03:22:05;23.48;;;16.08;;
41446;SDS011;27185;52.040;4.490;2023-05-07T03:24:50;20.35;;;16.15;;
41446;SDS011;27185;52.040;4.490;2023-05-07T03:27:36;16.98;;;14.38;;
41446;SDS011;27185;52.040;4.490;2023-05-07T03:30:22;22.60;;;16.13;;
41446;SDS011;27185;52.040;4.490;2023-05-07T03:33:07;15.30;;;13.68;;
41446;SDS011;27185;52.040;4.490;2023-05-07T03:35:53;19.13;;;15.50;;
41446;SDS011;27185;52.040;4.490;2023-05-07T03:38:38;20.50;;;17.35;;
41446;SDS011;27185;52.040;4.490;2023-05-07T03:41:24;23.55;;;17.23;;
41446;SDS011;27185;52.040;4.490;2023-05-07T03:44:10;20.15;;;16.80;;
41446;SDS011;27185;52.040;4.490;2023-05-07T03:46:56;18.50;;;16.45;;
41446;SDS011;27185;52.040;4.490;2023-05-07T03:49:42;19.15;;;15.57;;
41446;SDS011;27185;52.040;4.490;2023-05-07T03:52:27;19.00;;;15.80;;
41446;SDS011;27185;52.040;4.490;2023-05-07T03:55:13;19.98;;;17.52;;
41446;SDS011;27185;52.040;4.490;2023-05-07T03:57:58;22.38;;;16.80;;
41446;SDS011;27185;52.040;4.490;2023-05-07T04:00:44;16.10;;;14.43;;
41446;SDS011;27185;52.040;4.490;2023-05-07T04:03:29;17.33;;;15.52;;
41446;SDS011;27185;52.040;4.490;2023-05-07T04:06:15;20.50;;;16.77;;
41446;SDS011;27185;52.040;4.490;2023-05-07T04:09:02;17.40;;;15.63;;
41446;SDS011;27185;52.040;4.490;2023-05-07T04:11:47;16.50;;;14.35;;
41446;SDS011;27185;52.040;4.490;2023-05-07T04:14:33;16.67;;;14.70;;
41446;SDS011;27185;52.040;4.490;2023-05-07T04:17:19;17.13;;;13.77;;
41446;SDS011;27185;52.040;4.490;2023-05-07T04:20:04;16.02;;;14.32;;
41446;SDS011;27185;52.040;4.490;2023-05-07T04:22:52;16.15;;;14.05;;
41446;SDS011;27185;52.040;4.490;2023-05-07T04:25:37;14.73;;;12.95;;
41446;SDS011;27185;52.040;4.490;2023-05-07T04:28:23;15.43;;;13.70;;
41446;SDS011;27185;52.040;4.490;2023-05-07T04:31:09;13.98;;;12.48;;
41446;SDS011;27185;52.040;4.490;2023-05-07T04:33:55;13.75;;;12.15;;
41446;SDS011;27185;52.040;4.490;2023-05-07T04:36:41;15.20;;;13.35;;
41446;SDS011;27185;52.040;4.490;2023-05-07T04:39:27;14.18;;;12.52;;
41446;SDS011;27185;52.040;4.490;2023-05-07T04:42:16;14.43;;;11.05;;
41446;SDS011;27185;52.040;4.490;2023-05-07T04:45:02;13.90;;;12.15;;
41446;SDS011;27185;52.040;4.490;2023-05-07T04:47:50;12.90;;;11.68;;
41446;SDS011;27185;52.040;4.490;2023-05-07T04:50:35;13.43;;;12.02;;
41446;SDS011;27185;52.040;4.490;2023-05-07T04:53:21;13.85;;;11.73;;
41446;SDS011;27185;52.040;4.490;2023-05-07T04:56:07;13.63;;;12.27;;
41446;SDS011;27185;52.040;4.490;2023-05-07T04:58:52;13.05;;;11.63;;
41446;SDS011;27185;52.040;4.490;2023-05-07T05:01:38;17.23;;;11.70;;
41446;SDS011;27185;52.040;4.490;2023-05-07T05:04:25;14.45;;;12.93;;
41446;SDS011;27185;52.040;4.490;2023-05-07T05:07:10;13.77;;;11.88;;
41446;SDS011;27185;52.040;4.490;2023-05-07T05:09:56;13.63;;;12.23;;
41446;SDS011;27185;52.040;4.490;2023-05-07T05:12:42;12.02;;;10.68;;
41446;SDS011;27185;52.040;4.490;2023-05-07T05:15:28;12.82;;;11.18;;
41446;SDS011;27185;52.040;4.490;2023-05-07T05:18:14;12.70;;;11.40;;
41446;SDS011;27185;52.040;4.490;2023-05-07T05:20:59;13.65;;;11.50;;
41446;SDS011;27185;52.040;4.490;2023-05-07T05:23:45;13.55;;;12.15;;
41446;SDS011;27185;52.040;4.490;2023-05-07T05:26:30;12.57;;;11.23;;
41446;SDS011;27185;52.040;4.490;2023-05-07T05:29:16;12.05;;;10.65;;
41446;SDS011;27185;52.040;4.490;2023-05-07T05:32:02;12.75;;;11.20;;
41446;SDS011;27185;52.040;4.490;2023-05-07T05:34:47;13.23;;;11.02;;
41446;SDS011;27185;52.040;4.490;2023-05-07T05:37:33;13.48;;;10.98;;
41446;SDS011;27185;52.040;4.490;2023-05-07T05:40:18;12.65;;;11.35;;
41446;SDS011;27185;52.040;4.490;2023-05-07T05:43:05;12.55;;;11.20;;
41446;SDS011;27185;52.040;4.490;2023-05-07T05:45:50;15.10;;;10.85;;
41446;SDS011;27185;52.040;4.490;2023-05-07T05:48:36;11.00;;;9.90;;
41446;SDS011;27185;52.040;4.490;2023-05-07T05:51:22;12.52;;;10.90;;
41446;SDS011;27185;52.040;4.490;2023-05-07T05:54:08;13.60;;;10.98;;
41446;SDS011;27185;52.040;4.490;2023-05-07T05:56:53;13.02;;;11.10;;
41446;SDS011;27185;52.040;4.490;2023-05-07T05:59:39;12.45;;;11.15;;
41446;SDS011;27185;52.040;4.490;2023-05-07T06:02:24;13.73;;;11.82;;
41446;SDS011;27185;52.040;4.490;2023-05-07T06:05:10;17.42;;;12.80;;
41446;SDS011;27185;52.040;4.490;2023-05-07T06:07:56;13.93;;;12.25;;
41446;SDS011;27185;52.040;4.490;2023-05-07T06:10:41;12.32;;;10.98;;
41446;SDS011;27185;52.040;4.490;2023-05-07T06:13:27;13.18;;;11.77;;
41446;SDS011;27185;52.040;4.490;2023-05-07T06:16:12;14.95;;;12.18;;
41446;SDS011;27185;52.040;4.490;2023-05-07T06:18:58;13.73;;;12.32;;
41446;SDS011;27185;52.040;4.490;2023-05-07T06:21:44;14.80;;;13.20;;
41446;SDS011;27185;52.040;4.490;2023-05-07T06:24:29;14.80;;;13.15;;
41446;SDS011;27185;52.040;4.490;2023-05-07T06:27:15;15.98;;;12.85;;
41446;SDS011;27185;52.040;4.490;2023-05-07T06:30:01;18.50;;;13.25;;
41446;SDS011;27185;52.040;4.490;2023-05-07T06:32:46;15.45;;;13.10;;
41446;SDS011;27185;52.040;4.490;2023-05-07T06:35:32;13.93;;;12.23;;
41446;SDS011;27185;52.040;4.490;2023-05-07T06:38:17;19.75;;;13.55;;
41446;SDS011;27185;52.040;4.490;2023-05-07T06:41:03;15.52;;;13.30;;
41446;SDS011;27185;52.040;4.490;2023-05-07T06:43:50;16.23;;;14.23;;
41446;SDS011;27185;52.040;4.490;2023-05-07T06:46:36;16.85;;;13.90;;
41446;SDS011;27185;52.040;4.490;2023-05-07T06:49:21;18.35;;;14.27;;
41446;SDS011;27185;52.040;4.490;2023-05-07T06:52:07;20.13;;;14.63;;
41446;SDS011;27185;52.040;4.490;2023-05-07T06:54:52;16.25;;;14.55;;
41446;SDS011;27185;52.040;4.490;2023-05-07T06:57:38;15.50;;;13.30;;
41446;SDS011;27185;52.040;4.490;2023-05-07T07:00:24;15.27;;;12.00;;
41446;SDS011;27185;52.040;4.490;2023-05-07T07:03:09;15.27;;;12.93;;
41446;SDS011;27185;52.040;4.490;2023-05-07T07:05:55;12.85;;;11.55;;
41446;SDS011;27185;52.040;4.490;2023-05-07T07:08:41;19.27;;;13.57;;
41446;SDS011;27185;52.040;4.490;2023-05-07T07:11:27;15.48;;;12.60;;
41446;SDS011;27185;52.040;4.490;2023-05-07T07:14:12;16.20;;;12.70;;
41446;SDS011;27185;52.040;4.490;2023-05-07T07:16:58;16.33;;;13.10;;
41446;SDS011;27185;52.040;4.490;2023-05-07T07:19:43;13.07;;;11.70;;
41446;SDS011;27185;52.040;4.490;2023-05-07T07:22:29;14.02;;;12.60;;
41446;SDS011;27185;52.040;4.490;2023-05-07T07:25:14;13.00;;;11.48;;
41446;SDS011;27185;52.040;4.490;2023-05-07T07:28:00;12.82;;;11.43;;
41446;SDS011;27185;52.040;4.490;2023-05-07T07:30:46;15.13;;;11.98;;
41446;SDS011;27185;52.040;4.490;2023-05-07T07:33:31;16.00;;;10.75;;
41446;SDS011;27185;52.040;4.490;2023-05-07T07:36:17;13.15;;;11.75;;
41446;SDS011;27185;52.040;4.490;2023-05-07T07:39:02;12.38;;;11.10;;
41446;SDS011;27185;52.040;4.490;2023-05-07T07:41:48;13.10;;;11.20;;
41446;SDS011;27185;52.040;4.490;2023-05-07T07:44:33;13.43;;;11.40;;
41446;SDS011;27185;52.040;4.490;2023-05-07T07:47:19;13.15;;;11.52;;
41446;SDS011;27185;52.040;4.490;2023-05-07T07:50:05;11.57;;;10.38;;
41446;SDS011;27185;52.040;4.490;2023-05-07T07:52:51;13.13;;;9.88;;
41446;SDS011;27185;52.040;4.490;2023-05-07T07:55:39;11.88;;;10.15;;
41446;SDS011;27185;52.040;4.490;2023-05-07T07:58:25;12.68;;;9.45;;
41446;SDS011;27185;52.040;4.490;2023-05-07T08:01:11;10.23;;;8.90;;
41446;SDS011;27185;52.040;4.490;2023-05-07T08:03:57;9.07;;;8.13;;
41446;SDS011;27185;52.040;4.490;2023-05-07T08:06:43;9.98;;;8.73;;
41446;SDS011;27185;52.040;4.490;2023-05-07T08:09:29;11.38;;;7.72;;
41446;SDS011;27185;52.040;4.490;2023-05-07T08:12:14;10.27;;;7.63;;
41446;SDS011;27185;52.040;4.490;2023-05-07T08:15:00;9.02;;;8.13;;
41446;SDS011;27185;52.040;4.490;2023-05-07T08:17:46;10.45;;;8.00;;
41446;SDS011;27185;52.040;4.490;2023-05-07T08:20:31;10.00;;;7.93;;
41446;SDS011;27185;52.040;4.490;2023-05-07T08:23:18;11.35;;;8.55;;
41446;SDS011;27185;52.040;4.490;2023-05-07T08:26:04;8.63;;;7.38;;
41446;SDS011;27185;52.040;4.490;2023-05-07T08:28:49;8.20;;;6.68;;
41446;SDS011;27185;52.040;4.490;2023-05-07T08:31:35;9.93;;;6.30;;
41446;SDS011;27185;52.040;4.490;2023-05-07T08:34:21;9.05;;;6.22;;
41446;SDS011;27185;52.040;4.490;2023-05-07T08:37:07;8.40;;;5.63;;
41446;SDS011;27185;52.040;4.490;2023-05-07T08:39:52;7.25;;;5.65;;
41446;SDS011;27185;52.040;4.490;2023-05-07T08:42:38;7.53;;;5.80;;
41446;SDS011;27185;52.040;4.490;2023-05-07T08:45:26;10.75;;;6.93;;
41446;SDS011;27185;52.040;4.490;2023-05-07T08:48:16;11.93;;;8.15;;
41446;SDS011;27185;52.040;4.490;2023-05-07T08:51:02;8.52;;;6.82;;
41446;SDS011;27185;52.040;4.490;2023-05-07T08:53:48;10.02;;;6.60;;
41446;SDS011;27185;52.040;4.490;2023-05-07T08:56:35;7.93;;;6.25;;
41446;SDS011;27185;52.040;4.490;2023-05-07T08:59:20;9.07;;;6.38;;
41446;SDS011;27185;52.040;4.490;2023-05-07T09:02:06;12.73;;;7.22;;
41446;SDS011;27185;52.040;4.490;2023-05-07T09:04:54;7.90;;;6.82;;
41446;SDS011;27185;52.040;4.490;2023-05-07T09:07:40;7.38;;;6.43;;
41446;SDS011;27185;52.040;4.490;2023-05-07T09:10:25;10.02;;;6.80;;
41446;SDS011;27185;52.040;4.490;2023-05-07T09:13:11;10.35;;;8.35;;
41446;SDS011;27185;52.040;4.490;2023-05-07T09:16:06;8.20;;;6.60;;
41446;SDS011;27185;52.040;4.490;2023-05-07T09:18:57;12.43;;;7.68;;
41446;SDS011;27185;52.040;4.490;2023-05-07T09:21:43;10.68;;;8.20;;
41446;SDS011;27185;52.040;4.490;2023-05-07T09:24:30;8.60;;;6.40;;
41446;SDS011;27185;52.040;4.490;2023-05-07T09:27:19;10.23;;;6.70;;
41446;SDS011;27185;52.040;4.490;2023-05-07T09:30:08;9.25;;;6.35;;
41446;SDS011;27185;52.040;4.490;2023-05-07T09:32:55;7.57;;;6.75;;
41446;SDS011;27185;52.040;4.490;2023-05-07T09:35:41;9.68;;;7.90;;
41446;SDS011;27185;52.040;4.490;2023-05-07T09:38:26;7.97;;;6.68;;
41446;SDS011;27185;52.040;4.490;2023-05-07T09:41:13;7.55;;;5.35;;
41446;SDS011;27185;52.040;4.490;2023-05-07T09:43:59;10.18;;;6.18;;
41446;SDS011;27185;52.040;4.490;2023-05-07T09:46:46;9.40;;;7.03;;
41446;SDS011;27185;52.040;4.490;2023-05-07T09:49:38;8.95;;;7.10;;
41446;SDS011;27185;52.040;4.490;2023-05-07T09:52:27;9.98;;;7.65;;
41446;SDS011;27185;52.040;4.490;2023-05-07T09:55:18;10.25;;;8.07;;
41446;SDS011;27185;52.040;4.490;2023-05-07T09:58:04;8.38;;;6.93;;
41446;SDS011;27185;52.040;4.490;2023-05-07T10:00:52;10.98;;;6.80;;
41446;SDS011;27185;52.040;4.490;2023-05-07T10:03:39;8.43;;;5.82;;
41446;SDS011;27185;52.040;4.490;2023-05-07T10:06:26;9.88;;;6.40;;
41446;SDS011;27185;52.040;4.490;2023-05-07T10:09:12;8.82;;;5.25;;
41446;SDS011;27185;52.040;4.490;2023-05-07T10:14:46;10.95;;;7.50;;
41446;SDS011;27185;52.040;4.490;2023-05-07T10:17:36;13.88;;;6.90;;
41446;SDS011;27185;52.040;4.490;2023-05-07T10:20:23;8.82;;;6.40;;
41446;SDS011;27185;52.040;4.490;2023-05-07T10:23:09;10.85;;;7.32;;
41446;SDS011;27185;52.040;4.490;2023-05-07T10:26:01;8.43;;;6.22;;
41446;SDS011;27185;52.040;4.490;2023-05-07T10:28:50;8.18;;;5.72;;
41446;SDS011;27185;52.040;4.490;2023-05-07T10:31:50;9.90;;;7.57;;
41446;SDS011;27185;52.040;4.490;2023-05-07T10:34:43;9.05;;;5.43;;
41446;SDS011;27185;52.040;4.490;2023-05-07T10:37:30;10.90;;;6.03;;
41446;SDS011;27185;52.040;4.490;2023-05-07T10:40:16;8.98;;;5.93;;
41446;SDS011;27185;52.040;4.490;2023-05-07T10:43:05;7.63;;;5.05;;
41446;SDS011;27185;52.040;4.490;2023-05-07T10:46:09;6.05;;;4.45;;
41446;SDS011;27185;52.040;4.490;2023-05-07T10:51:45;13.73;;;5.10;;
41446;SDS011;27185;52.040;4.490;2023-05-07T10:58:22;5.18;;;3.90;;
41446;SDS011;27185;52.040;4.490;2023-05-07T11:01:12;7.10;;;3.40;;
41446;SDS011;27185;52.040;4.490;2023-05-07T11:04:12;7.50;;;3.25;;
41446;SDS011;27185;52.040;4.490;2023-05-07T11:09:54;8.77;;;2.65;;
41446;SDS011;27185;52.040;4.490;2023-05-07T11:15:33;8.13;;;4.07;;
41446;SDS011;27185;52.040;4.490;2023-05-07T11:18:20;6.40;;;3.05;;
41446;SDS011;27185;52.040;4.490;2023-05-07T11:21:06;7.78;;;3.25;;
41446;SDS011;27185;52.040;4.490;2023-05-07T11:26:45;8.15;;;2.78;;
41446;SDS011;27185;52.040;4.490;2023-05-07T11:29:32;5.82;;;2.20;;
41446;SDS011;27185;52.040;4.490;2023-05-07T11:32:22;6.65;;;3.40;;
41446;SDS011;27185;52.040;4.490;2023-05-07T11:35:08;10.63;;;3.85;;
41446;SDS011;27185;52.040;4.490;2023-05-07T11:37:58;10.45;;;4.82;;
41446;SDS011;27185;52.040;4.490;2023-05-07T11:40:52;6.97;;;4.70;;
41446;SDS011;27185;52.040;4.490;2023-05-07T11:43:40;8.82;;;5.03;;
41446;SDS011;27185;52.040;4.490;2023-05-07T11:46:42;9.07;;;5.43;;
41446;SDS011;27185;52.040;4.490;2023-05-07T11:49:29;8.65;;;6.55;;
41446;SDS011;27185;52.040;4.490;2023-05-07T11:52:15;8.13;;;5.78;;
41446;SDS011;27185;52.040;4.490;2023-05-07T11:55:02;9.90;;;6.20;;
41446;SDS011;27185;52.040;4.490;2023-05-07T11:57:49;9.80;;;5.10;;
41446;SDS011;27185;52.040;4.490;2023-05-07T12:00:35;7.88;;;5.35;;
41446;SDS011;27185;52.040;4.490;2023-05-07T12:03:20;12.10;;;6.72;;
41446;SDS011;27185;52.040;4.490;2023-05-07T12:06:06;10.90;;;5.57;;
41446;SDS011;27185;52.040;4.490;2023-05-07T12:08:52;10.70;;;7.30;;
41446;SDS011;27185;52.040;4.490;2023-05-07T12:11:38;10.98;;;6.32;;
41446;SDS011;27185;52.040;4.490;2023-05-07T12:14:27;9.85;;;7.05;;
41446;SDS011;27185;52.040;4.490;2023-05-07T12:17:14;7.50;;;6.50;;
41446;SDS011;27185;52.040;4.490;2023-05-07T12:20:01;9.57;;;5.07;;
41446;SDS011;27185;52.040;4.490;2023-05-07T12:22:47;8.25;;;5.00;;
41446;SDS011;27185;52.040;4.490;2023-05-07T12:25:35;7.50;;;5.78;;
41446;SDS011;27185;52.040;4.490;2023-05-07T12:28:21;9.20;;;5.97;;
41446;SDS011;27185;52.040;4.490;2023-05-07T12:31:07;19.27;;;8.23;;
41446;SDS011;27185;52.040;4.490;2023-05-07T12:33:52;14.82;;;7.13;;
41446;SDS011;27185;52.040;4.490;2023-05-07T12:36:38;12.48;;;7.53;;
41446;SDS011;27185;52.040;4.490;2023-05-07T12:39:25;20.92;;;9.73;;
41446;SDS011;27185;52.040;4.490;2023-05-07T12:42:14;21.48;;;9.52;;
41446;SDS011;27185;52.040;4.490;2023-05-07T12:45:11;23.55;;;9.13;;
41446;SDS011;27185;52.040;4.490;2023-05-07T12:48:01;14.98;;;9.48;;
41446;SDS011;27185;52.040;4.490;2023-05-07T12:50:51;17.48;;;10.35;;
41446;SDS011;27185;52.040;4.490;2023-05-07T12:53:41;16.83;;;10.57;;
41446;SDS011;27185;52.040;4.490;2023-05-07T12:56:30;18.10;;;10.07;;
41446;SDS011;27185;52.040;4.490;2023-05-07T12:59:16;21.75;;;11.57;;
41446;SDS011;27185;52.040;4.490;2023-05-07T13:02:02;14.55;;;11.27;;
41446;SDS011;27185;52.040;4.490;2023-05-07T13:04:47;19.85;;;12.30;;
41446;SDS011;27185;52.040;4.490;2023-05-07T13:07:33;19.05;;;12.60;;
41446;SDS011;27185;52.040;4.490;2023-05-07T13:10:19;18.08;;;13.32;;
41446;SDS011;27185;52.040;4.490;2023-05-07T13:13:04;23.63;;;14.88;;
41446;SDS011;27185;52.040;4.490;2023-05-07T13:15:50;26.50;;;14.85;;
41446;SDS011;27185;52.040;4.490;2023-05-07T13:18:38;22.60;;;15.43;;
41446;SDS011;27185;52.040;4.490;2023-05-07T13:21:25;25.65;;;16.65;;
41446;SDS011;27185;52.040;4.490;2023-05-07T13:24:11;21.65;;;16.75;;
41446;SDS011;27185;52.040;4.490;2023-05-07T13:26:57;23.88;;;16.02;;
41446;SDS011;27185;52.040;4.490;2023-05-07T13:29:43;25.15;;;16.48;;
41446;SDS011;27185;52.040;4.490;2023-05-07T13:32:28;21.83;;;17.45;;
41446;SDS011;27185;52.040;4.490;2023-05-07T13:35:15;22.05;;;17.65;;
41446;SDS011;27185;52.040;4.490;2023-05-07T13:38:01;22.05;;;16.73;;
41446;SDS011;27185;52.040;4.490;2023-05-07T13:40:46;23.05;;;17.58;;
41446;SDS011;27185;52.040;4.490;2023-05-07T13:43:32;24.02;;;17.60;;
41446;SDS011;27185;52.040;4.490;2023-05-07T13:46:18;23.63;;;16.75;;
41446;SDS011;27185;52.040;4.490;2023-05-07T13:49:04;27.27;;;17.23;;
41446;SDS011;27185;52.040;4.490;2023-05-07T13:51:49;23.80;;;15.88;;
41446;SDS011;27185;52.040;4.490;2023-05-07T13:54:35;21.60;;;16.05;;
41446;SDS011;27185;52.040;4.490;2023-05-07T13:57:21;24.60;;;17.58;;
41446;SDS011;27185;52.040;4.490;2023-05-07T14:00:06;23.58;;;16.35;;
41446;SDS011;27185;52.040;4.490;2023-05-07T14:02:53;20.05;;;15.80;;
41446;SDS011;27185;52.040;4.490;2023-05-07T14:05:39;20.95;;;14.90;;
41446;SDS011;27185;52.040;4.490;2023-05-07T14:08:25;21.52;;;16.63;;
41446;SDS011;27185;52.040;4.490;2023-05-07T14:11:11;23.67;;;16.95;;
41446;SDS011;27185;52.040;4.490;2023-05-07T14:13:56;19.55;;;15.20;;
41446;SDS011;27185;52.040;4.490;2023-05-07T14:16:43;23.58;;;16.63;;
41446;SDS011;27185;52.040;4.490;2023-05-07T14:19:29;24.85;;;17.23;;
41446;SDS011;27185;52.040;4.490;2023-05-07T14:22:15;27.50;;;18.00;;
41446;SDS011;27185;52.040;4.490;2023-05-07T14:25:01;19.38;;;16.15;;
41446;SDS011;27185;52.040;4.490;2023-05-07T14:27:46;29.17;;;18.27;;
41446;SDS011;27185;52.040;4.490;2023-05-07T14:30:32;23.08;;;17.55;;
41446;SDS011;27185;52.040;4.490;2023-05-07T14:33:17;24.90;;;16.58;;
41446;SDS011;27185;52.040;4.490;2023-05-07T14:36:03;27.83;;;18.23;;
41446;SDS011;27185;52.040;4.490;2023-05-07T14:38:49;21.92;;;18.23;;
41446;SDS011;27185;52.040;4.490;2023-05-07T14:41:35;24.98;;;18.05;;
41446;SDS011;27185;52.040;4.490;2023-05-07T14:44:20;29.75;;;17.63;;
41446;SDS011;27185;52.040;4.490;2023-05-07T14:47:06;22.92;;;16.83;;
41446;SDS011;27185;52.040;4.490;2023-05-07T14:49:52;26.17;;;17.35;;
41446;SDS011;27185;52.040;4.490;2023-05-07T14:52:39;25.10;;;16.65;;
41446;SDS011;27185;52.040;4.490;2023-05-07T14:55:25;26.17;;;19.00;;
41446;SDS011;27185;52.040;4.490;2023-05-07T14:58:10;23.45;;;18.58;;
41446;SDS011;27185;52.040;4.490;2023-05-07T15:00:56;23.90;;;19.15;;
41446;SDS011;27185;52.040;4.490;2023-05-07T15:03:42;22.52;;;18.90;;
41446;SDS011;27185;52.040;4.490;2023-05-07T15:06:27;23.65;;;18.30;;
41446;SDS011;27185;52.040;4.490;2023-05-07T15:09:14;25.80;;;19.02;;
41446;SDS011;27185;52.040;4.490;2023-05-07T15:12:00;26.10;;;19.95;;
41446;SDS011;27185;52.040;4.490;2023-05-07T15:14:47;24.95;;;17.30;;
41446;SDS011;27185;52.040;4.490;2023-05-07T15:17:32;24.23;;;19.10;;
41446;SDS011;27185;52.040;4.490;2023-05-07T15:20:18;23.80;;;18.42;;
41446;SDS011;27185;52.040;4.490;2023-05-07T15:23:04;29.10;;;20.10;;
41446;SDS011;27185;52.040;4.490;2023-05-07T15:25:51;27.60;;;18.57;;
41446;SDS011;27185;52.040;4.490;2023-05-07T15:28:37;24.90;;;17.27;;
41446;SDS011;27185;52.040;4.490;2023-05-07T15:31:24;20.52;;;16.48;;
41446;SDS011;27185;52.040;4.490;2023-05-07T15:34:10;21.98;;;16.38;;
41446;SDS011;27185;52.040;4.490;2023-05-07T15:36:55;25.13;;;18.00;;
41446;SDS011;27185;52.040;4.490;2023-05-07T15:39:42;25.27;;;17.90;;
41446;SDS011;27185;52.040;4.490;2023-05-07T15:42:28;21.27;;;18.15;;
41446;SDS011;27185;52.040;4.490;2023-05-07T15:44:57;25.60;;;18.00;;
41446;SDS011;27185;52.040;4.490;2023-05-07T15:47:43;25.42;;;18.70;;
41446;SDS011;27185;52.040;4.490;2023-05-07T15:50:28;22.85;;;17.58;;
41446;SDS011;27185;52.040;4.490;2023-05-07T15:53:14;28.55;;;19.70;;
41446;SDS011;27185;52.040;4.490;2023-05-07T15:55:59;26.73;;;19.30;;
41446;SDS011;27185;52.040;4.490;2023-05-07T15:58:45;26.65;;;19.45;;
41446;SDS011;27185;52.040;4.490;2023-05-07T16:01:32;31.73;;;22.00;;
41446;SDS011;27185;52.040;4.490;2023-05-07T16:04:17;29.63;;;21.42;;
41446;SDS011;27185;52.040;4.490;2023-05-07T16:07:03;26.83;;;18.80;;
41446;SDS011;27185;52.040;4.490;2023-05-07T16:09:49;27.55;;;19.15;;
41446;SDS011;27185;52.040;4.490;2023-05-07T16:12:34;23.70;;;17.77;;
41446;SDS011;27185;52.040;4.490;2023-05-07T16:15:20;23.90;;;17.48;;
41446;SDS011;27185;52.040;4.490;2023-05-07T16:18:06;23.88;;;18.15;;
41446;SDS011;27185;52.040;4.490;2023-05-07T16:20:51;24.30;;;18.58;;
41446;SDS011;27185;52.040;4.490;2023-05-07T16:23:38;23.08;;;17.52;;
41446;SDS011;27185;52.040;4.490;2023-05-07T16:26:24;24.90;;;17.60;;
41446;SDS011;27185;52.040;4.490;2023-05-07T16:29:10;24.20;;;18.50;;
41446;SDS011;27185;52.040;4.490;2023-05-07T16:31:56;22.80;;;18.63;;
41446;SDS011;27185;52.040;4.490;2023-05-07T16:34:41;25.90;;;19.58;;
41446;SDS011;27185;52.040;4.490;2023-05-07T16:37:27;27.40;;;19.60;;